createdAt,value
2018-07-04T00:00:17.755Z,51.40
2018-07-04T00:03:11.242Z,49.70
2018-07-04T00:06:04.507Z,51.90
2018-07-04T00:08:57.913Z,50.80
2018-07-04T00:11:51.805Z,51.20
2018-07-04T00:14:45.267Z,52.80
2018-07-04T00:17:38.828Z,50.80
2018-07-04T00:20:37.446Z,51.90
2018-07-04T00:23:31.015Z,52.90
2018-07-04T00:26:24.227Z,52.50
2018-07-04T00:29:17.406Z,53.80
2018-07-04T00:32:10.786Z,52.60
2018-07-04T00:35:03.984Z,51.00
2018-07-04T00:37:58.089Z,52.30
2018-07-04T00:40:51.475Z,50.80
2018-07-04T00:43:44.849Z,52.40
2018-07-04T00:46:38.177Z,53.80
2018-07-04T00:49:31.488Z,53.60
2018-07-04T00:52:24.837Z,55.00
2018-07-04T00:55:18.189Z,54.40
2018-07-04T00:58:11.527Z,54.60
2018-07-04T01:03:52.165Z,55.20
2018-07-04T01:06:45.305Z,55.20
2018-07-04T01:09:38.641Z,54.90
2018-07-04T01:12:31.981Z,55.90
2018-07-04T01:15:25.398Z,55.60
2018-07-04T01:18:18.750Z,55.20
2018-07-04T01:21:14.212Z,55.10
2018-07-04T01:24:07.829Z,53.70
2018-07-04T01:27:01.164Z,54.00
2018-07-04T01:29:54.624Z,54.10
2018-07-04T01:32:47.725Z,54.50
2018-07-04T01:35:41.120Z,55.00
2018-07-04T01:38:34.551Z,52.90
2018-07-04T01:41:28.005Z,52.80
2018-07-04T01:44:21.281Z,53.40
2018-07-04T01:47:14.749Z,52.10
2018-07-04T01:50:07.973Z,54.60
2018-07-04T01:53:01.438Z,55.30
2018-07-04T01:55:54.842Z,55.30
2018-07-04T01:58:48.190Z,54.80
2018-07-04T02:01:41.473Z,55.10
2018-07-04T02:04:35.046Z,54.80
2018-07-04T02:07:28.627Z,55.30
2018-07-04T02:10:22.051Z,54.90
2018-07-04T02:13:15.218Z,55.10
2018-07-04T02:16:08.536Z,55.10
2018-07-04T02:19:01.772Z,54.90
2018-07-04T02:21:55.125Z,55.80
2018-07-04T02:24:48.603Z,55.70
2018-07-04T02:27:42.053Z,55.50
2018-07-04T02:30:35.417Z,55.90
2018-07-04T02:33:28.880Z,56.90
2018-07-04T02:36:22.237Z,56.60
2018-07-04T02:39:15.755Z,56.80
2018-07-04T02:42:09.114Z,57.10
2018-07-04T02:45:02.467Z,58.30
2018-07-04T02:47:55.723Z,57.70
2018-07-04T02:50:49.116Z,57.00
2018-07-04T02:53:42.342Z,57.10
2018-07-04T02:56:35.810Z,56.80
2018-07-04T02:59:29.259Z,56.90
2018-07-04T03:02:22.733Z,57.10
2018-07-04T03:05:16.067Z,57.50
2018-07-04T03:08:09.648Z,58.00
2018-07-04T03:11:03.044Z,58.50
2018-07-04T03:13:56.499Z,58.20
2018-07-04T03:16:50.000Z,59.50
2018-07-04T03:19:43.317Z,58.70
2018-07-04T03:22:36.821Z,58.80
2018-07-04T03:25:30.059Z,58.50
2018-07-04T03:28:23.339Z,58.10
2018-07-04T03:31:16.785Z,57.80
2018-07-04T03:34:10.159Z,58.20
2018-07-04T03:37:03.616Z,57.60
2018-07-04T03:39:56.896Z,59.10
2018-07-04T03:42:50.956Z,58.50
2018-07-04T03:45:44.291Z,58.90
2018-07-04T03:48:37.913Z,58.70
2018-07-04T03:51:31.454Z,58.70
2018-07-04T03:54:24.640Z,59.20
2018-07-04T03:57:17.908Z,59.20
2018-07-04T04:00:11.450Z,61.30
2018-07-04T04:03:04.632Z,59.80
2018-07-04T04:05:57.902Z,59.40
2018-07-04T04:08:51.256Z,59.60
2018-07-04T04:11:44.716Z,59.20
2018-07-04T04:14:37.927Z,59.50
2018-07-04T04:17:31.139Z,61.30
2018-07-04T04:20:24.584Z,60.40
2018-07-04T04:23:17.898Z,61.00
2018-07-04T04:26:11.299Z,60.90
2018-07-04T04:29:04.717Z,61.30
2018-07-04T04:31:58.182Z,64.10
2018-07-04T04:34:51.379Z,62.20
2018-07-04T04:37:44.903Z,61.60
2018-07-04T04:40:38.417Z,62.20
2018-07-04T04:43:31.952Z,63.20
2018-07-04T04:46:25.227Z,63.10
2018-07-04T04:52:06.005Z,62.00
2018-07-04T04:54:59.330Z,61.90
2018-07-04T04:57:52.713Z,60.10
2018-07-04T05:00:46.971Z,60.60
2018-07-04T05:03:40.360Z,62.10
2018-07-04T05:06:33.634Z,61.70
2018-07-04T05:09:26.919Z,62.40
2018-07-04T05:12:20.386Z,62.00
2018-07-04T05:15:13.877Z,62.10
2018-07-04T05:18:07.420Z,61.70
2018-07-04T05:21:00.898Z,61.70
2018-07-04T05:23:54.253Z,61.50
2018-07-04T05:26:47.630Z,61.00
2018-07-04T05:29:41.002Z,59.30
2018-07-04T05:32:34.324Z,58.60
2018-07-04T05:38:15.076Z,56.80
2018-07-04T05:41:08.800Z,55.90
2018-07-04T05:44:02.368Z,55.40
2018-07-04T05:46:55.817Z,54.40
2018-07-04T05:49:49.004Z,54.30
2018-07-04T05:52:42.487Z,53.60
2018-07-04T05:55:35.812Z,52.30
2018-07-04T05:58:29.196Z,52.60
2018-07-04T06:01:22.519Z,50.90
2018-07-04T06:04:15.783Z,50.40
2018-07-04T06:07:09.178Z,48.40
2018-07-04T06:10:02.385Z,47.20
2018-07-04T06:12:55.891Z,45.40
2018-07-04T06:15:49.439Z,44.20
2018-07-04T06:18:43.865Z,42.00
2018-07-04T06:21:37.305Z,40.10
2018-07-04T06:24:30.733Z,38.80
2018-07-04T06:27:24.138Z,36.40
2018-07-04T06:30:17.700Z,37.00
2018-07-04T06:33:11.199Z,31.70
2018-07-04T06:36:04.449Z,29.90
2018-07-04T06:38:39.043Z,28.50
2018-07-04T06:43:36.390Z,27.50
2018-07-04T06:46:04.872Z,27.50
2018-07-04T06:48:33.399Z,26.50
2018-07-04T06:51:01.867Z,26.20
2018-07-04T06:53:30.650Z,26.20
2018-07-04T06:55:59.098Z,26.10
2018-07-04T06:58:27.528Z,25.90
2018-07-04T07:00:56.031Z,26.10
2018-07-04T07:03:43.288Z,25.80
2018-07-04T07:06:36.518Z,26.10
2018-07-04T07:09:29.912Z,27.00
2018-07-04T07:12:23.673Z,27.70
2018-07-04T07:15:16.745Z,28.90
2018-07-04T07:18:10.974Z,29.20
2018-07-04T07:21:04.633Z,29.60
2018-07-04T07:23:58.260Z,28.90
2018-07-04T07:26:51.649Z,29.10
2018-07-04T07:29:44.961Z,28.30
2018-07-04T07:32:38.419Z,27.70
2018-07-04T07:35:31.762Z,27.00
2018-07-04T07:38:25.169Z,26.00
2018-07-04T07:41:18.504Z,25.50
2018-07-04T07:44:11.879Z,28.40
2018-07-04T07:47:06.607Z,25.00
2018-07-04T07:49:59.971Z,25.40
2018-07-04T07:52:53.500Z,24.00
2018-07-04T07:55:47.000Z,25.10
2018-07-04T07:58:40.504Z,25.70
2018-07-04T08:01:33.938Z,24.10
2018-07-04T08:04:28.624Z,23.10
2018-07-04T08:07:21.993Z,22.50
2018-07-04T08:10:15.282Z,22.10
2018-07-04T08:13:09.847Z,22.60
2018-07-04T08:16:03.185Z,23.70
2018-07-04T08:18:57.485Z,22.70
2018-07-04T08:21:51.060Z,22.90
2018-07-04T08:24:44.432Z,22.50
2018-07-04T08:27:38.080Z,22.30
2018-07-04T08:30:31.826Z,23.40
2018-07-04T08:33:25.596Z,23.10
2018-07-04T08:40:08.736Z,23.40
2018-07-04T08:43:02.349Z,23.20
2018-07-04T08:45:55.733Z,25.30
2018-07-04T08:48:49.178Z,24.50
2018-07-04T08:51:42.681Z,24.40
2018-07-04T08:54:36.039Z,23.70
2018-07-04T08:57:29.389Z,23.60
2018-07-04T09:00:22.700Z,24.10
2018-07-04T09:03:16.395Z,24.00
2018-07-04T09:06:09.913Z,25.40
2018-07-04T09:09:03.411Z,26.00
2018-07-04T09:14:44.306Z,30.50
2018-07-04T09:17:38.041Z,31.40
2018-07-04T09:23:18.448Z,33.50
2018-07-04T09:26:12.297Z,35.90
2018-07-04T09:29:05.450Z,33.40
2018-07-04T09:31:58.921Z,33.50
2018-07-04T09:34:52.168Z,32.40
2018-07-04T09:37:45.640Z,34.50
2018-07-04T09:40:39.128Z,34.10
2018-07-04T09:43:32.535Z,34.30
2018-07-04T09:46:25.834Z,33.80
2018-07-04T09:49:19.245Z,33.20
2018-07-04T09:52:12.421Z,34.40
2018-07-04T09:55:05.888Z,35.20
2018-07-04T09:57:59.143Z,37.40
2018-07-04T10:00:58.026Z,37.50
2018-07-04T10:03:51.486Z,37.30
2018-07-04T10:06:45.302Z,38.90
2018-07-04T10:09:38.709Z,39.00
2018-07-04T10:12:31.989Z,40.10
2018-07-04T10:15:25.377Z,41.60
2018-07-04T10:18:19.000Z,40.80
2018-07-04T10:21:12.159Z,44.30
2018-07-04T10:24:05.661Z,46.40
2018-07-04T10:26:59.197Z,49.00
2018-07-04T10:29:52.532Z,51.20
2018-07-04T10:32:45.860Z,49.80
2018-07-04T10:35:39.290Z,49.30
2018-07-04T10:38:32.607Z,48.90
2018-07-04T10:41:26.141Z,49.10
2018-07-04T10:44:19.514Z,49.30
2018-07-04T10:47:13.050Z,45.30
2018-07-04T10:50:06.329Z,44.20
2018-07-04T10:52:59.682Z,42.20
2018-07-04T10:55:53.091Z,40.60
2018-07-04T10:58:46.556Z,39.90
2018-07-04T11:01:40.027Z,39.30
2018-07-04T11:04:33.474Z,37.70
2018-07-04T11:07:26.817Z,37.90
2018-07-04T11:10:20.294Z,39.50
2018-07-04T11:13:17.908Z,40.70
2018-07-04T11:16:11.265Z,41.80
2018-07-04T11:19:04.994Z,42.40
2018-07-04T11:21:58.512Z,43.50
2018-07-04T11:24:51.782Z,45.10
2018-07-04T11:27:45.038Z,46.10
2018-07-04T11:30:38.354Z,46.00
2018-07-04T11:33:31.788Z,46.70
2018-07-04T11:36:25.081Z,47.10
2018-07-04T11:39:18.372Z,48.60
2018-07-04T11:42:11.554Z,46.60
2018-07-04T11:45:04.914Z,44.60
2018-07-04T11:47:39.607Z,43.70
2018-07-04T11:50:08.068Z,41.30
2018-07-04T11:55:05.127Z,40.50
2018-07-04T11:57:33.540Z,40.50
2018-07-04T12:00:01.981Z,41.50
2018-07-04T12:02:30.548Z,39.60
2018-07-04T12:05:17.761Z,40.20
2018-07-04T12:07:52.392Z,39.90
2018-07-04T12:10:21.007Z,39.60
2018-07-04T12:12:49.585Z,39.00
2018-07-04T12:15:18.000Z,38.80
2018-07-04T12:17:46.621Z,38.30
2018-07-04T12:20:15.325Z,38.10
2018-07-04T12:22:43.838Z,40.40
2018-07-04T12:25:12.319Z,39.40
2018-07-04T12:27:40.776Z,40.00
2018-07-04T12:30:09.255Z,40.10
2018-07-04T12:32:37.708Z,41.40
2018-07-04T12:35:06.157Z,40.40
2018-07-04T12:37:34.648Z,40.10
2018-07-04T12:40:03.004Z,40.80
2018-07-04T12:42:31.466Z,40.40
2018-07-04T12:47:28.964Z,40.70
2018-07-04T12:49:57.386Z,40.00
2018-07-04T12:52:28.884Z,41.00
2018-07-04T12:55:16.937Z,42.30
2018-07-04T12:58:10.486Z,42.70
2018-07-04T13:01:03.942Z,43.50
2018-07-04T13:03:57.597Z,45.70
2018-07-04T13:06:51.034Z,46.40
2018-07-04T13:09:44.243Z,48.30
2018-07-04T13:12:37.665Z,47.90
2018-07-04T13:15:31.102Z,48.60
2018-07-04T13:18:24.497Z,50.20
2018-07-04T13:21:18.163Z,51.30
2018-07-04T13:24:11.609Z,52.60
2018-07-04T13:27:04.969Z,54.90
2018-07-04T13:29:58.200Z,56.30
2018-07-04T13:32:51.801Z,57.90
2018-07-04T13:35:45.421Z,58.30
2018-07-04T13:38:38.849Z,58.80
2018-07-04T13:41:32.115Z,59.10
2018-07-04T13:47:12.805Z,60.20
2018-07-04T13:50:06.365Z,61.40
2018-07-04T13:52:59.904Z,62.80
2018-07-04T13:55:53.262Z,65.10
2018-07-04T13:58:46.643Z,66.80
2018-07-04T14:01:40.149Z,67.30
2018-07-04T14:04:33.820Z,67.30
2018-07-04T14:07:27.141Z,67.80
2018-07-04T14:10:20.515Z,67.60
2018-07-04T14:13:14.010Z,66.30
2018-07-04T14:16:07.427Z,66.70
2018-07-04T14:19:00.988Z,66.10
2018-07-04T14:21:54.261Z,63.70
2018-07-04T14:24:47.642Z,62.50
2018-07-04T14:27:40.964Z,62.00
2018-07-04T14:30:34.441Z,62.60
2018-07-04T14:33:27.770Z,62.90
2018-07-04T14:36:21.271Z,62.20
2018-07-04T14:39:14.710Z,59.90
2018-07-04T14:42:08.041Z,59.80
2018-07-04T14:45:01.568Z,60.30
2018-07-04T14:47:55.081Z,60.30
2018-07-04T14:50:48.448Z,60.50
2018-07-04T14:53:42.027Z,63.50
2018-07-04T14:56:35.600Z,64.90
2018-07-04T14:59:28.954Z,59.40
2018-07-04T15:02:22.360Z,58.80
2018-07-04T15:05:15.611Z,61.50
2018-07-04T15:08:09.144Z,62.20
2018-07-04T15:11:02.607Z,59.50
2018-07-04T15:13:56.077Z,59.40
2018-07-04T15:16:49.520Z,60.80
2018-07-04T15:19:43.230Z,61.40
2018-07-04T15:22:36.657Z,61.30
2018-07-04T15:25:30.235Z,61.60
2018-07-04T15:28:23.689Z,61.90
2018-07-04T15:31:17.187Z,61.80
2018-07-04T15:34:10.445Z,62.00
2018-07-04T15:37:03.790Z,62.50
2018-07-04T15:39:57.191Z,62.90
2018-07-04T15:42:50.689Z,63.00
2018-07-04T15:45:44.147Z,63.10
2018-07-04T15:48:37.556Z,63.40
2018-07-04T15:51:30.968Z,63.20
2018-07-04T15:54:24.535Z,63.70
2018-07-04T15:57:18.120Z,64.70
2018-07-04T16:00:11.621Z,65.70
2018-07-04T16:03:05.128Z,67.00
2018-07-04T16:05:58.806Z,66.40
2018-07-04T16:11:40.326Z,68.70
2018-07-04T16:14:33.847Z,67.00
2018-07-04T16:17:27.003Z,66.70
2018-07-04T16:20:20.425Z,65.10
2018-07-04T16:23:14.986Z,67.10
2018-07-04T16:26:08.773Z,69.60
2018-07-04T16:29:02.662Z,71.20
2018-07-04T16:31:56.249Z,72.80
2018-07-04T16:34:49.559Z,73.70
2018-07-04T16:37:42.824Z,72.90
2018-07-04T16:40:36.337Z,72.90
2018-07-04T16:43:29.760Z,73.70
2018-07-04T16:46:23.129Z,74.80
2018-07-04T16:49:16.397Z,76.00
2018-07-04T16:52:09.871Z,76.00
2018-07-04T16:55:03.278Z,76.70
2018-07-04T16:57:56.861Z,78.00
2018-07-04T17:00:50.462Z,78.90
2018-07-04T17:03:43.756Z,79.80
2018-07-04T17:06:36.958Z,80.90
2018-07-04T17:09:30.464Z,82.20
2018-07-04T17:12:23.980Z,83.60
2018-07-04T17:15:17.390Z,83.30
2018-07-04T17:18:10.804Z,82.90
2018-07-04T17:21:10.978Z,83.50
2018-07-04T17:24:04.313Z,86.10
2018-07-04T17:26:57.629Z,85.30
2018-07-04T17:29:50.899Z,85.40
2018-07-04T17:32:44.439Z,86.40
2018-07-04T17:35:37.905Z,86.70
2018-07-04T17:38:31.370Z,86.70
2018-07-04T17:41:24.955Z,85.80
2018-07-04T17:44:18.489Z,85.30
2018-07-04T17:47:12.010Z,84.20
2018-07-04T17:50:05.592Z,83.40
2018-07-04T17:52:59.055Z,83.00
2018-07-04T17:55:52.275Z,82.40
2018-07-04T17:58:45.856Z,81.50
2018-07-04T18:04:26.804Z,78.60
2018-07-04T18:07:20.270Z,79.20
2018-07-04T18:10:13.523Z,79.20
2018-07-04T18:13:06.878Z,79.20
2018-07-04T18:16:00.319Z,79.10
2018-07-04T18:18:53.720Z,78.60
2018-07-04T18:21:47.048Z,78.70
2018-07-04T18:24:40.629Z,78.90
2018-07-04T18:27:34.064Z,79.40
2018-07-04T18:30:27.740Z,79.40
2018-07-04T18:33:21.330Z,79.50
2018-07-04T18:36:14.655Z,80.50
2018-07-04T18:39:07.990Z,79.50
2018-07-04T18:42:01.151Z,79.40
2018-07-04T18:44:54.434Z,79.80
2018-07-04T18:50:35.526Z,81.90
2018-07-04T18:53:28.940Z,81.30
2018-07-04T18:56:22.368Z,83.30
2018-07-04T18:59:16.328Z,80.60
2018-07-04T19:02:41.492Z,84.10
2018-07-04T19:05:34.821Z,84.00
2018-07-04T19:08:28.183Z,84.00
2018-07-04T19:11:21.832Z,85.40
2018-07-04T19:14:15.351Z,85.80
2018-07-04T19:17:08.736Z,85.60
2018-07-04T19:20:01.958Z,87.90
2018-07-04T19:22:55.624Z,87.90
2018-07-04T19:25:49.040Z,88.20
2018-07-04T19:28:42.406Z,87.50
2018-07-04T19:31:35.845Z,88.20
2018-07-04T19:34:29.342Z,87.90
2018-07-04T19:37:22.799Z,88.00
2018-07-04T19:40:15.902Z,89.00
2018-07-04T19:43:09.244Z,90.10
2018-07-04T19:46:02.572Z,90.10
2018-07-04T19:48:56.476Z,89.80
2018-07-04T19:51:50.176Z,89.70
2018-07-04T19:54:43.555Z,90.70
2018-07-04T19:57:36.821Z,90.90
2018-07-04T20:00:30.216Z,90.80
2018-07-04T20:03:24.265Z,91.00
2018-07-04T20:06:17.428Z,91.60
2018-07-04T20:09:10.988Z,92.40
2018-07-04T20:15:39.136Z,92.50
2018-07-04T20:18:32.630Z,92.90
2018-07-04T20:21:26.153Z,93.40
2018-07-04T20:24:19.624Z,93.70
2018-07-04T20:27:12.965Z,93.80
2018-07-04T20:30:06.229Z,94.30
2018-07-04T20:32:59.700Z,93.90
2018-07-04T20:35:52.968Z,94.30
2018-07-04T20:38:46.362Z,94.40
2018-07-04T20:41:40.005Z,95.00
2018-07-04T20:44:33.357Z,95.00
2018-07-04T20:47:27.756Z,94.60
2018-07-04T20:50:21.669Z,94.60
2018-07-04T20:53:14.873Z,94.50
2018-07-04T20:56:08.453Z,94.40
2018-07-04T20:59:01.730Z,94.30
2018-07-04T21:01:55.797Z,94.40
2018-07-04T21:04:49.470Z,94.70
2018-07-04T21:07:43.161Z,94.80
2018-07-04T21:10:36.713Z,95.00
2018-07-04T21:13:30.430Z,95.00
2018-07-04T21:16:24.009Z,94.70
2018-07-04T21:19:17.459Z,94.90
2018-07-04T21:22:10.839Z,94.90
2018-07-04T21:25:04.382Z,95.20
2018-07-04T21:27:57.784Z,95.10
2018-07-04T21:30:51.369Z,95.40
2018-07-04T21:33:44.732Z,96.30
2018-07-04T21:36:38.238Z,96.60
2018-07-04T21:39:31.641Z,96.30
2018-07-04T21:42:25.224Z,96.00
2018-07-04T21:45:18.534Z,95.90
2018-07-04T21:48:11.798Z,96.10
2018-07-04T21:51:05.914Z,95.80
2018-07-04T21:53:59.157Z,95.60
2018-07-04T21:56:52.653Z,95.60
2018-07-04T21:59:46.042Z,95.20
2018-07-04T22:02:39.670Z,95.40
2018-07-04T22:05:33.227Z,95.10
2018-07-04T22:08:26.519Z,94.80
2018-07-04T22:11:19.836Z,94.70
2018-07-04T22:14:13.207Z,95.60
2018-07-04T22:17:06.619Z,94.90
2018-07-04T22:19:59.926Z,94.00
2018-07-04T22:22:53.297Z,94.70
2018-07-04T22:25:46.640Z,94.00
2018-07-04T22:28:40.291Z,94.10
2018-07-04T22:31:33.918Z,94.00
2018-07-04T22:34:27.375Z,93.30
2018-07-04T22:37:20.765Z,94.40
2018-07-04T22:40:14.117Z,94.20
2018-07-04T22:45:54.572Z,94.40
2018-07-04T22:48:47.992Z,94.30
2018-07-04T22:51:41.310Z,94.70
2018-07-04T22:54:34.597Z,94.60
2018-07-04T22:57:28.043Z,94.40
2018-07-04T23:00:21.619Z,94.80
2018-07-04T23:03:15.310Z,94.90
2018-07-04T23:06:08.865Z,95.20
2018-07-04T23:09:02.240Z,95.20
2018-07-04T23:11:55.682Z,95.20
2018-07-04T23:14:49.126Z,94.90
2018-07-04T23:17:42.479Z,94.80
2018-07-04T23:20:35.740Z,94.90
2018-07-04T23:23:29.221Z,94.80
2018-07-04T23:26:22.389Z,93.80
2018-07-04T23:29:15.746Z,94.70
2018-07-04T23:32:09.050Z,94.10
2018-07-04T23:35:02.712Z,94.50
2018-07-04T23:37:56.282Z,97.20
2018-07-04T23:40:49.748Z,96.50
2018-07-04T23:43:43.312Z,96.80
2018-07-04T23:46:36.683Z,96.20
2018-07-04T23:49:30.026Z,95.80
2018-07-04T23:52:24.313Z,95.10
2018-07-04T23:55:17.740Z,95.20
2018-07-04T23:58:11.007Z,95.90
